sensor_id;sensor_type;location;lat;lon;timestamp;temperature;humidity
14604;DHT22;7388;51.078;13.740;2023-12-22T00:01:26;9.10;41.70
14604;DHT22;7388;51.078;13.740;2023-12-22T00:03:52;9.10;41.40
14604;DHT22;7388;51.078;13.740;2023-12-22T00:06:18;9.20;41.40
14604;DHT22;7388;51.078;13.740;2023-12-22T00:08:43;9.20;41.00
14604;DHT22;7388;51.078;13.740;2023-12-22T00:11:09;9.20;41.00
14604;DHT22;7388;51.078;13.740;2023-12-22T00:13:35;9.20;40.20
14604;DHT22;7388;51.078;13.740;2023-12-22T00:16:01;9.00;41.10
14604;DHT22;7388;51.078;13.740;2023-12-22T00:18:27;8.90;42.60
14604;DHT22;7388;51.078;13.740;2023-12-22T00:20:53;9.00;41.20
14604;DHT22;7388;51.078;13.740;2023-12-22T00:23:18;8.90;41.30
14604;DHT22;7388;51.078;13.740;2023-12-22T00:25:44;8.80;41.30
14604;DHT22;7388;51.078;13.740;2023-12-22T00:28:10;9.00;40.90
14604;DHT22;7388;51.078;13.740;2023-12-22T00:30:36;9.20;40.40
14604;DHT22;7388;51.078;13.740;2023-12-22T00:33:02;9.10;39.70
14604;DHT22;7388;51.078;13.740;2023-12-22T00:35:28;9.00;39.90
14604;DHT22;7388;51.078;13.740;2023-12-22T00:37:53;9.00;39.50
14604;DHT22;7388;51.078;13.740;2023-12-22T00:40:19;9.00;39.90
14604;DHT22;7388;51.078;13.740;2023-12-22T00:42:45;8.80;39.80
14604;DHT22;7388;51.078;13.740;2023-12-22T00:45:11;8.80;41.00
14604;DHT22;7388;51.078;13.740;2023-12-22T00:47:37;8.80;41.10
14604;DHT22;7388;51.078;13.740;2023-12-22T00:50:03;8.90;41.00
14604;DHT22;7388;51.078;13.740;2023-12-22T00:52:30;8.90;40.80
14604;DHT22;7388;51.078;13.740;2023-12-22T00:54:56;9.00;40.80
14604;DHT22;7388;51.078;13.740;2023-12-22T00:57:22;9.10;40.40
14604;DHT22;7388;51.078;13.740;2023-12-22T00:59:48;8.90;40.40
14604;DHT22;7388;51.078;13.740;2023-12-22T01:02:17;8.80;40.60
14604;DHT22;7388;51.078;13.740;2023-12-22T01:04:44;8.80;40.60
14604;DHT22;7388;51.078;13.740;2023-12-22T01:07:10;8.80;40.60
14604;DHT22;7388;51.078;13.740;2023-12-22T01:09:36;8.60;41.00
14604;DHT22;7388;51.078;13.740;2023-12-22T01:12:06;8.70;40.80
14604;DHT22;7388;51.078;13.740;2023-12-22T01:14:32;8.60;41.30
14604;DHT22;7388;51.078;13.740;2023-12-22T01:16:58;8.90;41.00
14604;DHT22;7388;51.078;13.740;2023-12-22T01:19:27;9.10;40.40
14604;DHT22;7388;51.078;13.740;2023-12-22T01:21:52;8.90;40.50
14604;DHT22;7388;51.078;13.740;2023-12-22T01:24:18;9.00;41.00
14604;DHT22;7388;51.078;13.740;2023-12-22T01:26:44;9.10;40.70
14604;DHT22;7388;51.078;13.740;2023-12-22T01:29:10;9.00;40.00
14604;DHT22;7388;51.078;13.740;2023-12-22T01:31:35;9.00;40.60
14604;DHT22;7388;51.078;13.740;2023-12-22T01:34:01;9.10;40.30
14604;DHT22;7388;51.078;13.740;2023-12-22T01:36:27;9.30;39.60
14604;DHT22;7388;51.078;13.740;2023-12-22T01:38:53;9.00;40.10
14604;DHT22;7388;51.078;13.740;2023-12-22T01:41:18;8.90;40.40
14604;DHT22;7388;51.078;13.740;2023-12-22T01:43:44;9.00;40.40
14604;DHT22;7388;51.078;13.740;2023-12-22T01:46:11;9.00;40.70
14604;DHT22;7388;51.078;13.740;2023-12-22T01:48:38;9.10;40.20
14604;DHT22;7388;51.078;13.740;2023-12-22T01:51:04;9.10;40.10
14604;DHT22;7388;51.078;13.740;2023-12-22T01:53:32;9.20;40.20
14604;DHT22;7388;51.078;13.740;2023-12-22T01:55:59;9.10;40.30
14604;DHT22;7388;51.078;13.740;2023-12-22T01:58:27;9.20;40.60
14604;DHT22;7388;51.078;13.740;2023-12-22T02:00:55;9.30;40.00
14604;DHT22;7388;51.078;13.740;2023-12-22T02:03:21;9.30;40.90
14604;DHT22;7388;51.078;13.740;2023-12-22T02:05:47;9.30;41.20
14604;DHT22;7388;51.078;13.740;2023-12-22T02:08:13;9.00;42.00
14604;DHT22;7388;51.078;13.740;2023-12-22T02:10:41;9.00;42.50
14604;DHT22;7388;51.078;13.740;2023-12-22T02:13:07;9.00;42.70
14604;DHT22;7388;51.078;13.740;2023-12-22T02:15:34;9.00;42.80
14604;DHT22;7388;51.078;13.740;2023-12-22T02:18:14;9.00;42.90
14604;DHT22;7388;51.078;13.740;2023-12-22T02:20:42;9.10;42.90
14604;DHT22;7388;51.078;13.740;2023-12-22T02:23:09;8.90;42.80
14604;DHT22;7388;51.078;13.740;2023-12-22T02:25:35;8.70;43.00
14604;DHT22;7388;51.078;13.740;2023-12-22T02:28:07;8.70;42.80
14604;DHT22;7388;51.078;13.740;2023-12-22T02:30:43;8.70;42.90
14604;DHT22;7388;51.078;13.740;2023-12-22T02:33:16;8.70;43.30
14604;DHT22;7388;51.078;13.740;2023-12-22T02:35:42;8.60;43.20
14604;DHT22;7388;51.078;13.740;2023-12-22T02:38:12;8.70;43.10
14604;DHT22;7388;51.078;13.740;2023-12-22T02:40:38;8.80;42.50
14604;DHT22;7388;51.078;13.740;2023-12-22T02:43:06;8.80;42.20
14604;DHT22;7388;51.078;13.740;2023-12-22T02:45:32;8.90;42.20
14604;DHT22;7388;51.078;13.740;2023-12-22T02:47:58;9.00;42.70
14604;DHT22;7388;51.078;13.740;2023-12-22T02:50:24;9.00;41.70
14604;DHT22;7388;51.078;13.740;2023-12-22T02:52:49;8.90;41.70
14604;DHT22;7388;51.078;13.740;2023-12-22T02:55:15;8.90;41.90
14604;DHT22;7388;51.078;13.740;2023-12-22T02:57:41;8.70;41.70
14604;DHT22;7388;51.078;13.740;2023-12-22T03:00:07;8.60;42.00
14604;DHT22;7388;51.078;13.740;2023-12-22T03:02:33;8.50;42.00
14604;DHT22;7388;51.078;13.740;2023-12-22T03:04:58;8.50;41.80
14604;DHT22;7388;51.078;13.740;2023-12-22T03:07:24;8.60;41.00
14604;DHT22;7388;51.078;13.740;2023-12-22T03:09:50;8.60;41.20
14604;DHT22;7388;51.078;13.740;2023-12-22T03:12:15;8.60;41.00
14604;DHT22;7388;51.078;13.740;2023-12-22T03:14:41;8.60;40.80
14604;DHT22;7388;51.078;13.740;2023-12-22T03:17:07;8.50;42.20
14604;DHT22;7388;51.078;13.740;2023-12-22T03:19:33;8.60;42.10
14604;DHT22;7388;51.078;13.740;2023-12-22T03:21:59;8.70;42.10
14604;DHT22;7388;51.078;13.740;2023-12-22T03:24:26;8.90;41.60
14604;DHT22;7388;51.078;13.740;2023-12-22T03:26:52;8.80;41.30
14604;DHT22;7388;51.078;13.740;2023-12-22T03:29:18;8.80;41.00
14604;DHT22;7388;51.078;13.740;2023-12-22T03:31:45;8.80;40.60
14604;DHT22;7388;51.078;13.740;2023-12-22T03:34:11;8.90;41.50
14604;DHT22;7388;51.078;13.740;2023-12-22T03:36:37;8.90;40.00
14604;DHT22;7388;51.078;13.740;2023-12-22T03:39:03;8.80;39.50
14604;DHT22;7388;51.078;13.740;2023-12-22T03:41:29;8.80;39.80
14604;DHT22;7388;51.078;13.740;2023-12-22T03:43:58;8.70;39.10
14604;DHT22;7388;51.078;13.740;2023-12-22T03:46:24;8.60;39.50
14604;DHT22;7388;51.078;13.740;2023-12-22T03:48:50;8.60;40.00
14604;DHT22;7388;51.078;13.740;2023-12-22T03:51:16;8.70;39.60
14604;DHT22;7388;51.078;13.740;2023-12-22T03:53:42;8.70;39.80
14604;DHT22;7388;51.078;13.740;2023-12-22T03:56:08;8.70;39.60
14604;DHT22;7388;51.078;13.740;2023-12-22T03:58:35;8.80;39.80
14604;DHT22;7388;51.078;13.740;2023-12-22T04:01:01;8.80;39.30
14604;DHT22;7388;51.078;13.740;2023-12-22T04:03:26;8.60;38.90
14604;DHT22;7388;51.078;13.740;2023-12-22T04:05:52;8.60;39.60
14604;DHT22;7388;51.078;13.740;2023-12-22T04:08:18;8.80;39.10
14604;DHT22;7388;51.078;13.740;2023-12-22T04:10:45;8.90;39.30
14604;DHT22;7388;51.078;13.740;2023-12-22T04:13:11;9.00;38.60
14604;DHT22;7388;51.078;13.740;2023-12-22T04:15:37;8.90;38.40
14604;DHT22;7388;51.078;13.740;2023-12-22T04:18:02;8.90;38.60
14604;DHT22;7388;51.078;13.740;2023-12-22T04:20:28;9.00;37.90
14604;DHT22;7388;51.078;13.740;2023-12-22T04:22:54;8.90;37.20
14604;DHT22;7388;51.078;13.740;2023-12-22T04:25:19;8.80;37.70
14604;DHT22;7388;51.078;13.740;2023-12-22T04:27:47;8.70;38.00
14604;DHT22;7388;51.078;13.740;2023-12-22T04:30:13;8.70;38.40
14604;DHT22;7388;51.078;13.740;2023-12-22T04:32:39;8.70;38.30
14604;DHT22;7388;51.078;13.740;2023-12-22T04:35:05;8.80;38.40
14604;DHT22;7388;51.078;13.740;2023-12-22T04:37:30;8.70;38.80
14604;DHT22;7388;51.078;13.740;2023-12-22T04:39:56;8.70;38.50
14604;DHT22;7388;51.078;13.740;2023-12-22T04:42:22;8.70;39.00
14604;DHT22;7388;51.078;13.740;2023-12-22T04:44:47;8.60;39.00
14604;DHT22;7388;51.078;13.740;2023-12-22T04:47:15;8.50;39.30
14604;DHT22;7388;51.078;13.740;2023-12-22T04:49:41;8.50;39.30
14604;DHT22;7388;51.078;13.740;2023-12-22T04:52:07;8.50;39.10
14604;DHT22;7388;51.078;13.740;2023-12-22T04:54:32;8.60;39.10
14604;DHT22;7388;51.078;13.740;2023-12-22T04:56:58;8.70;39.30
14604;DHT22;7388;51.078;13.740;2023-12-22T04:59:24;8.90;39.00
14604;DHT22;7388;51.078;13.740;2023-12-22T05:01:50;8.90;38.60
14604;DHT22;7388;51.078;13.740;2023-12-22T05:04:15;8.90;38.40
14604;DHT22;7388;51.078;13.740;2023-12-22T05:06:43;8.80;38.60
14604;DHT22;7388;51.078;13.740;2023-12-22T05:09:08;8.80;38.50
14604;DHT22;7388;51.078;13.740;2023-12-22T05:11:35;8.80;38.80
14604;DHT22;7388;51.078;13.740;2023-12-22T05:14:00;8.40;40.30
14604;DHT22;7388;51.078;13.740;2023-12-22T05:16:26;8.30;40.60
14604;DHT22;7388;51.078;13.740;2023-12-22T05:18:52;8.40;40.30
14604;DHT22;7388;51.078;13.740;2023-12-22T05:21:17;8.50;40.70
14604;DHT22;7388;51.078;13.740;2023-12-22T05:23:43;8.30;41.00
14604;DHT22;7388;51.078;13.740;2023-12-22T05:26:09;8.30;41.70
14604;DHT22;7388;51.078;13.740;2023-12-22T05:28:34;8.20;41.10
14604;DHT22;7388;51.078;13.740;2023-12-22T05:31:00;8.30;41.40
14604;DHT22;7388;51.078;13.740;2023-12-22T05:33:26;8.30;41.30
14604;DHT22;7388;51.078;13.740;2023-12-22T05:35:52;8.10;41.80
14604;DHT22;7388;51.078;13.740;2023-12-22T05:38:18;8.10;41.50
14604;DHT22;7388;51.078;13.740;2023-12-22T05:40:43;8.00;42.00
14604;DHT22;7388;51.078;13.740;2023-12-22T05:43:10;7.90;42.60
14604;DHT22;7388;51.078;13.740;2023-12-22T05:45:36;8.00;42.40
14604;DHT22;7388;51.078;13.740;2023-12-22T05:48:02;7.90;42.80
14604;DHT22;7388;51.078;13.740;2023-12-22T05:50:27;7.90;43.00
14604;DHT22;7388;51.078;13.740;2023-12-22T05:52:53;8.10;42.60
14604;DHT22;7388;51.078;13.740;2023-12-22T05:55:19;8.00;42.00
14604;DHT22;7388;51.078;13.740;2023-12-22T05:57:45;8.00;42.00
14604;DHT22;7388;51.078;13.740;2023-12-22T06:00:11;8.00;42.00
14604;DHT22;7388;51.078;13.740;2023-12-22T06:02:38;8.00;42.10
14604;DHT22;7388;51.078;13.740;2023-12-22T06:05:04;7.90;42.30
14604;DHT22;7388;51.078;13.740;2023-12-22T06:07:30;8.00;42.10
14604;DHT22;7388;51.078;13.740;2023-12-22T06:09:56;8.10;42.00
14604;DHT22;7388;51.078;13.740;2023-12-22T06:12:21;8.20;41.80
14604;DHT22;7388;51.078;13.740;2023-12-22T06:14:47;8.00;42.10
14604;DHT22;7388;51.078;13.740;2023-12-22T06:19:41;7.90;42.60
14604;DHT22;7388;51.078;13.740;2023-12-22T06:22:07;8.00;42.80
14604;DHT22;7388;51.078;13.740;2023-12-22T06:24:35;8.00;43.00
14604;DHT22;7388;51.078;13.740;2023-12-22T06:27:01;7.90;42.80
14604;DHT22;7388;51.078;13.740;2023-12-22T06:29:27;7.90;42.60
14604;DHT22;7388;51.078;13.740;2023-12-22T06:31:53;7.80;42.70
14604;DHT22;7388;51.078;13.740;2023-12-22T06:34:18;7.90;42.10
14604;DHT22;7388;51.078;13.740;2023-12-22T06:36:44;7.70;42.70
14604;DHT22;7388;51.078;13.740;2023-12-22T06:39:10;7.80;42.20
14604;DHT22;7388;51.078;13.740;2023-12-22T06:41:36;7.80;42.30
14604;DHT22;7388;51.078;13.740;2023-12-22T06:44:02;8.10;41.30
14604;DHT22;7388;51.078;13.740;2023-12-22T06:46:28;8.10;40.60
14604;DHT22;7388;51.078;13.740;2023-12-22T06:48:56;8.00;40.60
14604;DHT22;7388;51.078;13.740;2023-12-22T06:51:26;7.80;40.20
14604;DHT22;7388;51.078;13.740;2023-12-22T06:53:53;7.70;41.00
14604;DHT22;7388;51.078;13.740;2023-12-22T06:56:28;7.80;40.30
14604;DHT22;7388;51.078;13.740;2023-12-22T06:58:55;7.90;40.70
14604;DHT22;7388;51.078;13.740;2023-12-22T07:01:30;7.90;40.40
14604;DHT22;7388;51.078;13.740;2023-12-22T07:04:00;7.60;41.50
14604;DHT22;7388;51.078;13.740;2023-12-22T07:06:30;7.60;41.30
14604;DHT22;7388;51.078;13.740;2023-12-22T07:08:57;7.70;41.20
14604;DHT22;7388;51.078;13.740;2023-12-22T07:11:22;7.50;41.60
14604;DHT22;7388;51.078;13.740;2023-12-22T07:13:48;7.60;41.50
14604;DHT22;7388;51.078;13.740;2023-12-22T07:16:15;7.80;40.90
14604;DHT22;7388;51.078;13.740;2023-12-22T07:18:41;7.90;40.90
14604;DHT22;7388;51.078;13.740;2023-12-22T07:21:07;7.60;41.40
14604;DHT22;7388;51.078;13.740;2023-12-22T07:23:32;7.60;42.00
14604;DHT22;7388;51.078;13.740;2023-12-22T07:25:58;7.60;41.40
14604;DHT22;7388;51.078;13.740;2023-12-22T07:28:24;7.70;41.10
14604;DHT22;7388;51.078;13.740;2023-12-22T07:30:50;7.60;41.60
14604;DHT22;7388;51.078;13.740;2023-12-22T07:33:15;7.60;41.50
14604;DHT22;7388;51.078;13.740;2023-12-22T07:35:41;7.50;42.10
14604;DHT22;7388;51.078;13.740;2023-12-22T07:38:07;7.60;41.90
14604;DHT22;7388;51.078;13.740;2023-12-22T07:40:34;7.40;42.70
14604;DHT22;7388;51.078;13.740;2023-12-22T07:43:00;7.40;42.90
14604;DHT22;7388;51.078;13.740;2023-12-22T07:45:25;7.50;42.60
14604;DHT22;7388;51.078;13.740;2023-12-22T07:47:52;8.50;42.80
14604;DHT22;7388;51.078;13.740;2023-12-22T07:50:17;7.70;43.00
14604;DHT22;7388;51.078;13.740;2023-12-22T07:52:43;7.60;43.50
14604;DHT22;7388;51.078;13.740;2023-12-22T07:55:09;7.50;44.30
14604;DHT22;7388;51.078;13.740;2023-12-22T07:57:36;7.70;44.50
14604;DHT22;7388;51.078;13.740;2023-12-22T08:00:03;7.70;44.80
14604;DHT22;7388;51.078;13.740;2023-12-22T08:02:29;7.70;45.00
14604;DHT22;7388;51.078;13.740;2023-12-22T08:04:55;7.80;44.70
14604;DHT22;7388;51.078;13.740;2023-12-22T08:07:21;7.90;45.00
14604;DHT22;7388;51.078;13.740;2023-12-22T08:09:47;7.90;45.30
14604;DHT22;7388;51.078;13.740;2023-12-22T08:12:13;7.60;46.20
14604;DHT22;7388;51.078;13.740;2023-12-22T08:14:38;7.60;45.90
14604;DHT22;7388;51.078;13.740;2023-12-22T08:17:04;7.60;45.80
14604;DHT22;7388;51.078;13.740;2023-12-22T08:19:30;7.40;46.80
14604;DHT22;7388;51.078;13.740;2023-12-22T08:21:56;6.90;47.50
14604;DHT22;7388;51.078;13.740;2023-12-22T08:24:22;6.70;48.30
14604;DHT22;7388;51.078;13.740;2023-12-22T08:26:48;6.70;48.20
14604;DHT22;7388;51.078;13.740;2023-12-22T08:29:14;6.80;48.20
14604;DHT22;7388;51.078;13.740;2023-12-22T08:31:41;6.80;48.60
14604;DHT22;7388;51.078;13.740;2023-12-22T08:34:07;6.90;48.30
14604;DHT22;7388;51.078;13.740;2023-12-22T08:36:32;6.90;48.30
14604;DHT22;7388;51.078;13.740;2023-12-22T08:38:58;7.00;47.90
14604;DHT22;7388;51.078;13.740;2023-12-22T08:41:24;7.10;47.50
14604;DHT22;7388;51.078;13.740;2023-12-22T08:43:50;7.10;47.00
14604;DHT22;7388;51.078;13.740;2023-12-22T08:46:16;7.10;46.60
14604;DHT22;7388;51.078;13.740;2023-12-22T08:48:42;7.20;46.60
14604;DHT22;7388;51.078;13.740;2023-12-22T08:51:08;7.10;46.50
14604;DHT22;7388;51.078;13.740;2023-12-22T08:53:34;7.00;47.30
14604;DHT22;7388;51.078;13.740;2023-12-22T08:56:03;6.90;47.40
14604;DHT22;7388;51.078;13.740;2023-12-22T08:58:29;6.90;48.00
14604;DHT22;7388;51.078;13.740;2023-12-22T09:00:55;6.90;48.30
14604;DHT22;7388;51.078;13.740;2023-12-22T09:03:21;6.90;48.40
14604;DHT22;7388;51.078;13.740;2023-12-22T09:05:46;7.00;48.30
14604;DHT22;7388;51.078;13.740;2023-12-22T09:08:12;7.10;47.80
14604;DHT22;7388;51.078;13.740;2023-12-22T09:10:38;7.10;48.50
14604;DHT22;7388;51.078;13.740;2023-12-22T09:13:04;7.10;48.60
14604;DHT22;7388;51.078;13.740;2023-12-22T09:15:30;7.10;49.30
14604;DHT22;7388;51.078;13.740;2023-12-22T09:17:56;7.20;49.50
14604;DHT22;7388;51.078;13.740;2023-12-22T09:20:22;7.20;48.90
14604;DHT22;7388;51.078;13.740;2023-12-22T09:22:48;7.20;48.80
14604;DHT22;7388;51.078;13.740;2023-12-22T09:25:14;7.10;48.90
14604;DHT22;7388;51.078;13.740;2023-12-22T09:27:39;7.10;47.90
14604;DHT22;7388;51.078;13.740;2023-12-22T09:30:06;7.10;48.10
14604;DHT22;7388;51.078;13.740;2023-12-22T09:32:34;7.10;48.00
14604;DHT22;7388;51.078;13.740;2023-12-22T09:35:00;7.30;48.00
14604;DHT22;7388;51.078;13.740;2023-12-22T09:37:26;7.20;48.00
14604;DHT22;7388;51.078;13.740;2023-12-22T09:39:52;7.30;48.00
14604;DHT22;7388;51.078;13.740;2023-12-22T09:42:20;7.60;48.30
14604;DHT22;7388;51.078;13.740;2023-12-22T09:44:49;8.20;47.90
14604;DHT22;7388;51.078;13.740;2023-12-22T09:47:17;8.30;46.60
14604;DHT22;7388;51.078;13.740;2023-12-22T09:49:44;8.30;46.50
14604;DHT22;7388;51.078;13.740;2023-12-22T09:52:13;8.40;46.30
14604;DHT22;7388;51.078;13.740;2023-12-22T09:54:40;8.20;46.30
14604;DHT22;7388;51.078;13.740;2023-12-22T09:57:07;8.20;46.70
14604;DHT22;7388;51.078;13.740;2023-12-22T09:59:33;8.20;47.10
14604;DHT22;7388;51.078;13.740;2023-12-22T10:02:00;8.20;46.40
14604;DHT22;7388;51.078;13.740;2023-12-22T10:04:27;8.30;45.10
14604;DHT22;7388;51.078;13.740;2023-12-22T10:06:57;8.30;45.60
14604;DHT22;7388;51.078;13.740;2023-12-22T10:09:26;8.30;44.60
14604;DHT22;7388;51.078;13.740;2023-12-22T10:11:52;8.20;44.40
14604;DHT22;7388;51.078;13.740;2023-12-22T10:14:20;8.30;43.60
14604;DHT22;7388;51.078;13.740;2023-12-22T10:16:51;8.30;44.20
14604;DHT22;7388;51.078;13.740;2023-12-22T10:19:17;8.20;41.10
14604;DHT22;7388;51.078;13.740;2023-12-22T10:21:43;8.00;41.90
14604;DHT22;7388;51.078;13.740;2023-12-22T10:24:39;8.00;42.40
14604;DHT22;7388;51.078;13.740;2023-12-22T10:27:08;8.60;43.00
14604;DHT22;7388;51.078;13.740;2023-12-22T10:29:34;8.90;40.00
14604;DHT22;7388;51.078;13.740;2023-12-22T10:32:01;8.90;40.00
14604;DHT22;7388;51.078;13.740;2023-12-22T10:34:28;8.90;38.30
14604;DHT22;7388;51.078;13.740;2023-12-22T10:36:54;8.80;39.00
14604;DHT22;7388;51.078;13.740;2023-12-22T10:39:20;8.90;39.30
14604;DHT22;7388;51.078;13.740;2023-12-22T10:41:48;8.60;39.00
14604;DHT22;7388;51.078;13.740;2023-12-22T10:44:15;8.40;40.00
14604;DHT22;7388;51.078;13.740;2023-12-22T10:46:43;8.50;40.70
14604;DHT22;7388;51.078;13.740;2023-12-22T10:49:09;9.50;40.20
14604;DHT22;7388;51.078;13.740;2023-12-22T10:51:34;10.00;39.10
14604;DHT22;7388;51.078;13.740;2023-12-22T10:54:00;10.00;37.90
14604;DHT22;7388;51.078;13.740;2023-12-22T10:56:26;9.90;37.80
14604;DHT22;7388;51.078;13.740;2023-12-22T10:58:53;9.70;38.10
14604;DHT22;7388;51.078;13.740;2023-12-22T11:01:21;9.20;37.90
14604;DHT22;7388;51.078;13.740;2023-12-22T11:03:50;9.00;39.10
14604;DHT22;7388;51.078;13.740;2023-12-22T11:06:17;8.90;39.60
14604;DHT22;7388;51.078;13.740;2023-12-22T11:08:43;8.80;40.70
14604;DHT22;7388;51.078;13.740;2023-12-22T11:11:30;8.70;43.10
14604;DHT22;7388;51.078;13.740;2023-12-22T11:13:58;8.30;44.90
14604;DHT22;7388;51.078;13.740;2023-12-22T11:16:25;8.10;45.80
14604;DHT22;7388;51.078;13.740;2023-12-22T11:18:53;8.00;46.30
14604;DHT22;7388;51.078;13.740;2023-12-22T11:21:22;8.00;46.20
14604;DHT22;7388;51.078;13.740;2023-12-22T11:23:49;8.10;46.10
14604;DHT22;7388;51.078;13.740;2023-12-22T11:26:20;8.10;46.20
14604;DHT22;7388;51.078;13.740;2023-12-22T11:28:48;8.10;46.20
14604;DHT22;7388;51.078;13.740;2023-12-22T11:31:15;8.20;45.80
14604;DHT22;7388;51.078;13.740;2023-12-22T11:33:45;8.40;46.70
14604;DHT22;7388;51.078;13.740;2023-12-22T11:36:12;8.60;45.70
14604;DHT22;7388;51.078;13.740;2023-12-22T11:38:40;8.70;45.40
14604;DHT22;7388;51.078;13.740;2023-12-22T11:41:09;8.80;44.80
14604;DHT22;7388;51.078;13.740;2023-12-22T11:43:37;8.60;44.90
14604;DHT22;7388;51.078;13.740;2023-12-22T11:46:04;8.40;45.60
14604;DHT22;7388;51.078;13.740;2023-12-22T11:48:30;8.50;45.60
14604;DHT22;7388;51.078;13.740;2023-12-22T11:50:56;8.40;45.20
14604;DHT22;7388;51.078;13.740;2023-12-22T11:53:25;8.40;45.20
14604;DHT22;7388;51.078;13.740;2023-12-22T11:56:05;8.40;45.00
14604;DHT22;7388;51.078;13.740;2023-12-22T11:58:44;8.60;44.80
14604;DHT22;7388;51.078;13.740;2023-12-22T12:01:17;8.70;44.70
14604;DHT22;7388;51.078;13.740;2023-12-22T12:03:57;8.80;44.40
14604;DHT22;7388;51.078;13.740;2023-12-22T12:09:04;8.80;43.40
14604;DHT22;7388;51.078;13.740;2023-12-22T12:14:22;9.00;43.00
14604;DHT22;7388;51.078;13.740;2023-12-22T12:16:48;9.10;43.20
14604;DHT22;7388;51.078;13.740;2023-12-22T12:19:14;9.20;43.00
14604;DHT22;7388;51.078;13.740;2023-12-22T12:21:40;9.40;43.40
14604;DHT22;7388;51.078;13.740;2023-12-22T12:24:06;9.50;42.80
14604;DHT22;7388;51.078;13.740;2023-12-22T12:26:33;9.60;41.90
14604;DHT22;7388;51.078;13.740;2023-12-22T12:28:59;9.60;40.80
14604;DHT22;7388;51.078;13.740;2023-12-22T12:31:37;9.50;41.60
14604;DHT22;7388;51.078;13.740;2023-12-22T12:34:07;9.60;41.40
14604;DHT22;7388;51.078;13.740;2023-12-22T12:36:36;9.60;41.80
14604;DHT22;7388;51.078;13.740;2023-12-22T12:39:07;9.50;41.90
14604;DHT22;7388;51.078;13.740;2023-12-22T12:41:36;9.30;41.50
14604;DHT22;7388;51.078;13.740;2023-12-22T12:44:06;9.20;40.80
14604;DHT22;7388;51.078;13.740;2023-12-22T12:46:35;8.70;41.70
14604;DHT22;7388;51.078;13.740;2023-12-22T12:49:08;8.60;43.00
14604;DHT22;7388;51.078;13.740;2023-12-22T12:51:43;8.60;43.30
14604;DHT22;7388;51.078;13.740;2023-12-22T12:54:10;8.50;43.80
14604;DHT22;7388;51.078;13.740;2023-12-22T12:56:46;8.40;44.30
14604;DHT22;7388;51.078;13.740;2023-12-22T12:59:16;8.30;44.90
14604;DHT22;7388;51.078;13.740;2023-12-22T13:01:47;8.20;44.90
14604;DHT22;7388;51.078;13.740;2023-12-22T13:04:14;8.30;45.10
14604;DHT22;7388;51.078;13.740;2023-12-22T13:09:13;8.40;44.50
14604;DHT22;7388;51.078;13.740;2023-12-22T13:11:39;8.40;44.80
14604;DHT22;7388;51.078;13.740;2023-12-22T13:14:06;8.40;45.00
14604;DHT22;7388;51.078;13.740;2023-12-22T13:16:33;8.40;45.60
14604;DHT22;7388;51.078;13.740;2023-12-22T13:19:00;8.40;45.50
14604;DHT22;7388;51.078;13.740;2023-12-22T13:21:28;8.50;45.60
14604;DHT22;7388;51.078;13.740;2023-12-22T13:24:16;8.40;45.80
14604;DHT22;7388;51.078;13.740;2023-12-22T13:26:43;8.50;45.70
14604;DHT22;7388;51.078;13.740;2023-12-22T13:29:10;8.40;46.00
14604;DHT22;7388;51.078;13.740;2023-12-22T13:31:40;8.40;46.00
14604;DHT22;7388;51.078;13.740;2023-12-22T13:34:11;8.30;46.90
14604;DHT22;7388;51.078;13.740;2023-12-22T13:36:37;8.20;46.90
14604;DHT22;7388;51.078;13.740;2023-12-22T13:39:07;8.20;47.00
14604;DHT22;7388;51.078;13.740;2023-12-22T13:41:40;8.20;46.80
14604;DHT22;7388;51.078;13.740;2023-12-22T13:44:07;8.20;46.70
14604;DHT22;7388;51.078;13.740;2023-12-22T13:46:34;8.10;46.90
14604;DHT22;7388;51.078;13.740;2023-12-22T13:49:01;8.00;47.30
14604;DHT22;7388;51.078;13.740;2023-12-22T13:51:41;8.00;47.30
14604;DHT22;7388;51.078;13.740;2023-12-22T13:54:07;7.80;47.80
14604;DHT22;7388;51.078;13.740;2023-12-22T13:56:34;7.60;48.90
14604;DHT22;7388;51.078;13.740;2023-12-22T13:59:06;7.50;49.20
14604;DHT22;7388;51.078;13.740;2023-12-22T14:01:32;7.30;49.60
14604;DHT22;7388;51.078;13.740;2023-12-22T14:03:58;7.40;49.20
14604;DHT22;7388;51.078;13.740;2023-12-22T14:06:28;7.40;49.30
14604;DHT22;7388;51.078;13.740;2023-12-22T14:08:55;7.30;49.60
14604;DHT22;7388;51.078;13.740;2023-12-22T14:11:21;7.40;49.40
14604;DHT22;7388;51.078;13.740;2023-12-22T14:13:47;7.30;49.90
14604;DHT22;7388;51.078;13.740;2023-12-22T14:16:13;7.20;49.90
14604;DHT22;7388;51.078;13.740;2023-12-22T14:18:41;7.30;49.50
14604;DHT22;7388;51.078;13.740;2023-12-22T14:21:07;7.40;49.20
14604;DHT22;7388;51.078;13.740;2023-12-22T14:23:33;7.40;49.60
14604;DHT22;7388;51.078;13.740;2023-12-22T14:25:58;7.50;49.00
14604;DHT22;7388;51.078;13.740;2023-12-22T14:28:24;7.50;48.40
14604;DHT22;7388;51.078;13.740;2023-12-22T14:30:50;7.60;48.90
14604;DHT22;7388;51.078;13.740;2023-12-22T14:33:16;7.60;48.30
14604;DHT22;7388;51.078;13.740;2023-12-22T14:35:42;7.50;48.60
14604;DHT22;7388;51.078;13.740;2023-12-22T14:38:07;7.50;48.40
14604;DHT22;7388;51.078;13.740;2023-12-22T14:40:33;7.60;48.20
14604;DHT22;7388;51.078;13.740;2023-12-22T14:42:59;7.60;48.60
14604;DHT22;7388;51.078;13.740;2023-12-22T14:45:27;7.50;48.40
14604;DHT22;7388;51.078;13.740;2023-12-22T14:47:53;7.50;48.70
14604;DHT22;7388;51.078;13.740;2023-12-22T14:50:19;7.50;48.70
14604;DHT22;7388;51.078;13.740;2023-12-22T14:52:45;7.50;48.80
14604;DHT22;7388;51.078;13.740;2023-12-22T14:55:11;7.60;48.50
14604;DHT22;7388;51.078;13.740;2023-12-22T14:57:37;7.50;48.60
14604;DHT22;7388;51.078;13.740;2023-12-22T15:00:04;7.50;48.40
14604;DHT22;7388;51.078;13.740;2023-12-22T15:02:29;7.60;48.40
14604;DHT22;7388;51.078;13.740;2023-12-22T15:04:55;7.70;48.40
14604;DHT22;7388;51.078;13.740;2023-12-22T15:07:21;7.70;48.60
14604;DHT22;7388;51.078;13.740;2023-12-22T15:09:47;7.60;48.40
14604;DHT22;7388;51.078;13.740;2023-12-22T15:12:15;7.70;48.40
14604;DHT22;7388;51.078;13.740;2023-12-22T15:14:45;7.80;48.20
14604;DHT22;7388;51.078;13.740;2023-12-22T15:17:11;7.80;48.20
14604;DHT22;7388;51.078;13.740;2023-12-22T15:19:41;7.90;48.00
14604;DHT22;7388;51.078;13.740;2023-12-22T15:22:10;7.90;48.10
14604;DHT22;7388;51.078;13.740;2023-12-22T15:24:45;7.90;48.00
14604;DHT22;7388;51.078;13.740;2023-12-22T15:27:11;7.90;47.60
14604;DHT22;7388;51.078;13.740;2023-12-22T15:29:37;7.90;47.80
14604;DHT22;7388;51.078;13.740;2023-12-22T15:32:03;7.90;47.90
14604;DHT22;7388;51.078;13.740;2023-12-22T15:34:29;8.00;47.60
14604;DHT22;7388;51.078;13.740;2023-12-22T15:36:55;8.00;47.50
14604;DHT22;7388;51.078;13.740;2023-12-22T15:39:21;8.00;47.60
14604;DHT22;7388;51.078;13.740;2023-12-22T15:41:47;8.00;47.90
14604;DHT22;7388;51.078;13.740;2023-12-22T15:44:13;8.00;47.70
14604;DHT22;7388;51.078;13.740;2023-12-22T15:46:39;8.00;47.90
14604;DHT22;7388;51.078;13.740;2023-12-22T15:49:05;8.00;48.00
14604;DHT22;7388;51.078;13.740;2023-12-22T15:51:31;8.00;48.30
14604;DHT22;7388;51.078;13.740;2023-12-22T15:53:57;8.00;48.30